Observation data for Levelland on 10/18/2019      Previous  Date       Current Mesonet Observations  Soil Data  Daily Summary Page  Observations in Plain Language
KLD1 180500Z 16007KT 15/05 A2987 RMK A01 T01520047  RH  051%=      5-min Rain = 0
KLD1 180505Z 16008KT 15/05 A2986 RMK A01 T01480048  RH  052%=      5-min Rain = 0
KLD1 180510Z 16007KT 15/05 A2986 RMK A01 T01460048  RH  053%=      5-min Rain = 0
KLD1 180515Z 16009G14KT 15/05 A2986 RMK A01 T01470052  RH  054%=      5-min Rain = 0
KLD1 180520Z 16010KT 15/06 A2986 RMK A01 T01520057  RH  054%=      5-min Rain = 0
KLD1 180525Z 16010KT 15/06 A2986 RMK A01 T01520059  RH  055%=      5-min Rain = 0
KLD1 180530Z 16010KT 15/06 A2986 RMK A01 T01510061  RH  056%=      5-min Rain = 0
KLD1 180535Z 16010KT 15/06 A2986 RMK A01 T01500063  RH  057%=      5-min Rain = 0
KLD1 180540Z 16010KT 15/07 A2986 RMK A01 T01490066  RH  059%=      5-min Rain = 0
KLD1 180545Z 16009KT 15/07 A2986 RMK A01 T01490069  RH  060%=      5-min Rain = 0
KLD1 180550Z 17009KT 15/07 A2986 RMK A01 T01480071  RH  062%=      5-min Rain = 0
KLD1 180555Z 17009KT 15/07 A2986 RMK A01 T01480074  RH  063%=      5-min Rain = 0
KLD1 180600Z 17009KT 15/08 A2986 RMK A01 T01480075  RH  063%=      5-min Rain = 0
KLD1 180605Z 17010G16KT 15/08 A2986 RMK A01 T01480076  RH  064%=      5-min Rain = 0
KLD1 180610Z 17011G16KT 15/08 A2986 RMK A01 T01490078  RH  064%=      5-min Rain = 0
KLD1 180615Z 17011KT 15/08 A2986 RMK A01 T01490079  RH  064%=      5-min Rain = 0
KLD1 180620Z 17011KT 15/08 A2986 RMK A01 T01500079  RH  065%=      5-min Rain = 0
KLD1 180625Z 16010G15KT 15/08 A2986 RMK A01 T01490079  RH  065%=      5-min Rain = 0
KLD1 180630Z 17011KT 15/08 A2986 RMK A01 T01480079  RH  065%=      5-min Rain = 0
KLD1 180635Z 17009KT 15/08 A2986 RMK A01 T01470079  RH  065%=      5-min Rain = 0
KLD1 180640Z 17009KT 15/08 A2985 RMK A01 T01460078  RH  066%=      5-min Rain = 0
KLD1 180645Z 17010KT 14/08 A2985 RMK A01 T01440078  RH  066%=      5-min Rain = 0
KLD1 180650Z 16009KT 14/08 A2985 RMK A01 T01420077  RH  067%=      5-min Rain = 0
KLD1 180655Z 17009KT 14/08 A2985 RMK A01 T01410077  RH  067%=      5-min Rain = 0
KLD1 180700Z 17009KT 14/08 A2985 RMK A01 T01400077  RH  067%=      5-min Rain = 0
KLD1 180705Z 17009KT 14/08 A2985 RMK A01 T01400077  RH  067%=      5-min Rain = 0
KLD1 180710Z 17009KT 14/08 A2985 RMK A01 T01390076  RH  068%=      5-min Rain = 0
KLD1 180715Z 17008KT 14/08 A2985 RMK A01 T01380076  RH  068%=      5-min Rain = 0
KLD1 180720Z 17009KT 14/08 A2985 RMK A01 T01370076  RH  068%=      5-min Rain = 0
KLD1 180725Z 17010KT 14/08 A2984 RMK A01 T01370076  RH  068%=      5-min Rain = 0
KLD1 180730Z 17009KT 14/08 A2984 RMK A01 T01360076  RH  069%=      5-min Rain = 0
KLD1 180735Z 17009KT 14/08 A2984 RMK A01 T01350076  RH  069%=      5-min Rain = 0
KLD1 180740Z 17009KT 13/08 A2984 RMK A01 T01340076  RH  070%=      5-min Rain = 0
KLD1 180745Z 17009KT 13/08 A2984 RMK A01 T01330075  RH  070%=      5-min Rain = 0
KLD1 180750Z 17009KT 13/08 A2984 RMK A01 T01320075  RH  070%=      5-min Rain = 0
KLD1 180755Z 17009KT 13/08 A2984 RMK A01 T01310075  RH  071%=      5-min Rain = 0
KLD1 180800Z 17009KT 13/08 A2984 RMK A01 T01310075  RH  071%=      5-min Rain = 0
KLD1 180805Z 16009KT 13/08 A2984 RMK A01 T01300075  RH  071%=      5-min Rain = 0
KLD1 180810Z 16009KT 13/08 A2984 RMK A01 T01290075  RH  072%=      5-min Rain = 0
KLD1 180815Z 16009KT 13/08 A2984 RMK A01 T01280076  RH  072%=      5-min Rain = 0
KLD1 180820Z 16008KT 13/08 A2983 RMK A01 T01280076  RH  073%=      5-min Rain = 0
KLD1 180825Z 16009KT 13/08 A2983 RMK A01 T01260076  RH  073%=      5-min Rain = 0
KLD1 180830Z 16009KT 13/08 A2983 RMK A01 T01260076  RH  073%=      5-min Rain = 0
KLD1 180835Z 17010KT 13/08 A2983 RMK A01 T01260076  RH  074%=      5-min Rain = 0
KLD1 180840Z 17009KT 13/08 A2983 RMK A01 T01260076  RH  074%=      5-min Rain = 0
KLD1 180845Z 17009KT 13/08 A2983 RMK A01 T01250076  RH  074%=      5-min Rain = 0
KLD1 180850Z 17010KT 13/08 A2983 RMK A01 T01250077  RH  074%=      5-min Rain = 0
KLD1 180855Z 17010KT 13/08 A2983 RMK A01 T01250078  RH  075%=      5-min Rain = 0
KLD1 180900Z 17010KT 13/08 A2983 RMK A01 T01250078  RH  075%=      5-min Rain = 0
KLD1 180905Z 17009KT 12/08 A2983 RMK A01 T01240079  RH  076%=      5-min Rain = 0
KLD1 180910Z 17009KT 12/08 A2983 RMK A01 T01220078  RH  077%=      5-min Rain = 0
KLD1 180915Z 18008KT 12/08 A2983 RMK A01 T01210078  RH  077%=      5-min Rain = 0
KLD1 180920Z 18007KT 12/08 A2983 RMK A01 T01200078  RH  078%=      5-min Rain = 0
KLD1 180925Z 18008KT 12/08 A2983 RMK A01 T01180078  RH  079%=      5-min Rain = 0
KLD1 180930Z 18008KT 12/08 A2983 RMK A01 T01170078  RH  079%=      5-min Rain = 0
KLD1 180935Z 18008KT 12/08 A2982 RMK A01 T01160078  RH  080%=      5-min Rain = 0
KLD1 180940Z 18008KT 12/08 A2982 RMK A01 T01150079  RH  080%=      5-min Rain = 0
KLD1 180945Z 18008KT 12/08 A2982 RMK A01 T01160079  RH  081%=      5-min Rain = 0
KLD1 180950Z 18008KT 12/08 A2982 RMK A01 T01150080  RH  081%=      5-min Rain = 0
KLD1 180955Z 18008KT 12/08 A2982 RMK A01 T01160081  RH  082%=      5-min Rain = 0
KLD1 181000Z 18008KT 12/08 A2982 RMK A01 T01150082  RH  082%=      5-min Rain = 0
KLD1 181005Z 18008KT 12/08 A2982 RMK A01 T01150082  RH  083%=      5-min Rain = 0
KLD1 181010Z 18009KT 12/08 A2981 RMK A01 T01150083  RH  083%=      5-min Rain = 0
KLD1 181015Z 18009KT 12/09 A2982 RMK A01 T01160085  RH  083%=      5-min Rain = 0
KLD1 181020Z 18009KT 12/09 A2982 RMK A01 T01170085  RH  083%=      5-min Rain = 0
KLD1 181025Z 18008KT 12/09 A2982 RMK A01 T01160086  RH  084%=      5-min Rain = 0
KLD1 181030Z 18008KT 12/09 A2982 RMK A01 T01150086  RH  084%=      5-min Rain = 0
KLD1 181035Z 18008KT 11/09 A2982 RMK A01 T01140086  RH  085%=      5-min Rain = 0
KLD1 181040Z 18008KT 11/09 A2982 RMK A01 T01140086  RH  085%=      5-min Rain = 0
KLD1 181045Z 18008KT 11/09 A2982 RMK A01 T01140086  RH  086%=      5-min Rain = 0
KLD1 181050Z 18008KT 11/09 A2981 RMK A01 T01130086  RH  086%=      5-min Rain = 0
KLD1 181055Z 18008KT 11/09 A2981 RMK A01 T01120087  RH  087%=      5-min Rain = 0
KLD1 181100Z 18008KT 11/09 A2982 RMK A01 T01120087  RH  087%=      5-min Rain = 0
KLD1 181105Z 18008KT 11/09 A2982 RMK A01 T01120087  RH  087%=      5-min Rain = 0
KLD1 181110Z 18008KT 11/09 A2981 RMK A01 T01130088  RH  087%=      5-min Rain = 0
KLD1 181115Z 18008KT 11/09 A2981 RMK A01 T01130089  RH  088%=      5-min Rain = 0
KLD1 181120Z 18008KT 11/09 A2981 RMK A01 T01140089  RH  088%=      5-min Rain = 0
KLD1 181125Z 18008KT 11/09 A2981 RMK A01 T01140089  RH  088%=      5-min Rain = 0
KLD1 181130Z 18008KT 11/09 A2981 RMK A01 T01140090  RH  088%=      5-min Rain = 0
KLD1 181135Z 18008KT 11/09 A2981 RMK A01 T01130090  RH  088%=      5-min Rain = 0
KLD1 181140Z 18008KT 11/09 A2981 RMK A01 T01140090  RH  088%=      5-min Rain = 0
KLD1 181145Z 18009KT 11/09 A2981 RMK A01 T01140090  RH  088%=      5-min Rain = 0
KLD1 181150Z 18008KT 11/09 A2981 RMK A01 T01140090  RH  088%=      5-min Rain = 0
KLD1 181155Z 18008KT 11/09 A2981 RMK A01 T01140090  RH  088%=      5-min Rain = 0
KLD1 181200Z 18008KT 11/09 A2981 RMK A01 T01140091  RH  088%=      5-min Rain = 0
KLD1 181205Z 18009KT 11/09 A2981 RMK A01 T01130090  RH  089%=      5-min Rain = 0
KLD1 181210Z 18008KT 11/09 A2981 RMK A01 T01130090  RH  089%=      5-min Rain = 0
KLD1 181215Z 18008KT 11/09 A2981 RMK A01 T01120090  RH  089%=      5-min Rain = 0
KLD1 181220Z 18008KT 11/09 A2981 RMK A01 T01120090  RH  089%=      5-min Rain = 0
KLD1 181225Z 18007KT 11/09 A2981 RMK A01 T01110089  RH  089%=      5-min Rain = 0
KLD1 181230Z 19008KT 11/09 A2981 RMK A01 T01100090  RH  090%=      5-min Rain = 0
KLD1 181235Z 18008KT 11/09 A2981 RMK A01 T01100089  RH  090%=      5-min Rain = 0
KLD1 181240Z 18008KT 11/09 A2981 RMK A01 T01100089  RH  090%=      5-min Rain = 0
KLD1 181245Z 19007KT 11/09 A2981 RMK A01 T01090089  RH  090%=      5-min Rain = 0
KLD1 181250Z 19007KT 11/09 A2981 RMK A01 T01080088  RH  091%=      5-min Rain = 0
KLD1 181255Z 19007KT 11/09 A2981 RMK A01 T01060088  RH  091%=      5-min Rain = 0
KLD1 181300Z 19007KT 11/09 A2981 RMK A01 T01060088  RH  091%=      5-min Rain = 0
KLD1 181305Z 19007KT 11/09 A2981 RMK A01 T01050088  RH  091%=      5-min Rain = 0
KLD1 181310Z 19007KT 11/09 A2981 RMK A01 T01060088  RH  091%=      5-min Rain = 0
KLD1 181315Z 19007KT 11/09 A2981 RMK A01 T01070089  RH  091%=      5-min Rain = 0
KLD1 181320Z 18007KT 11/09 A298 RMK A01 T01080089  RH  091%=      5-min Rain = 0
KLD1 181325Z 18007KT 11/09 A298 RMK A01 T01100090  RH  090%=      5-min Rain = 0
KLD1 181330Z 18009KT 11/09 A298 RMK A01 T01110090  RH  090%=      5-min Rain = 0
KLD1 181335Z 19010KT 11/09 A298 RMK A01 T01130091  RH  089%=      5-min Rain = 0
KLD1 181340Z 19009G14KT 12/09 A298 RMK A01 T01150091  RH  088%=      5-min Rain = 0
KLD1 181345Z 19010KT 12/09 A298 RMK A01 T01170092  RH  087%=      5-min Rain = 0
KLD1 181350Z 19011KT 12/09 A298 RMK A01 T01190092  RH  086%=      5-min Rain = 0
KLD1 181355Z 19010KT 12/09 A298 RMK A01 T01220093  RH  085%=      5-min Rain = 0
KLD1 181400Z 19009KT 13/09 A2981 RMK A01 T01250094  RH  084%=      5-min Rain = 0
KLD1 181405Z 19009KT 13/10 A2981 RMK A01 T01280095  RH  083%=      5-min Rain = 0
KLD1 181410Z 19010KT 13/10 A298 RMK A01 T01310095  RH  081%=      5-min Rain = 0
KLD1 181415Z 18010KT 13/10 A298 RMK A01 T01340095  RH  080%=      5-min Rain = 0
KLD1 181420Z 19010KT 14/10 A298 RMK A01 T01380096  RH  078%=      5-min Rain = 0
KLD1 181425Z 19011KT 14/10 A298 RMK A01 T01400095  RH  077%=      5-min Rain = 0
KLD1 181430Z 18012G17KT 14/10 A298 RMK A01 T01430096  RH  075%=      5-min Rain = 0
KLD1 181435Z 18010G15KT 15/10 A298 RMK A01 T01470096  RH  074%=      5-min Rain = 0
KLD1 181440Z 18012KT 15/10 A298 RMK A01 T01480095  RH  073%=      5-min Rain = 0
KLD1 181445Z 18012KT 15/10 A298 RMK A01 T01510096  RH  072%=      5-min Rain = 0
KLD1 181450Z 18012KT 15/10 A298 RMK A01 T01540095  RH  070%=      5-min Rain = 0
KLD1 181455Z 18013KT 16/10 A298 RMK A01 T01570095  RH  069%=      5-min Rain = 0
KLD1 181500Z 19011KT 16/10 A298 RMK A01 T01610096  RH  068%=      5-min Rain = 0
KLD1 181505Z 18011KT 17/10 A298 RMK A01 T01650096  RH  066%=      5-min Rain = 0
KLD1 181510Z 18011KT 17/10 A298 RMK A01 T01690097  RH  065%=      5-min Rain = 0
KLD1 181515Z 18011KT 17/10 A298 RMK A01 T01710097  RH  064%=      5-min Rain = 0
KLD1 181520Z 18010KT 17/10 A298 RMK A01 T01730097  RH  063%=      5-min Rain = 0
KLD1 181525Z 19010KT 18/10 A298 RMK A01 T01780098  RH  061%=      5-min Rain = 0
KLD1 181530Z 19009KT 18/10 A298 RMK A01 T01830099  RH  060%=      5-min Rain = 0
KLD1 181535Z 19009KT 19/10 A298 RMK A01 T01870099  RH  058%=      5-min Rain = 0
KLD1 181540Z 19010G15KT 19/10 A298 RMK A01 T01920099  RH  057%=      5-min Rain = 0
KLD1 181545Z 20011KT 19/10 A298 RMK A01 T01940099  RH  056%=      5-min Rain = 0
KLD1 181550Z 20012KT 20/10 A298 RMK A01 T01970100  RH  055%=      5-min Rain = 0
KLD1 181555Z 20011KT 20/10 A298 RMK A01 T02010100  RH  054%=      5-min Rain = 0
KLD1 181600Z 20012KT 21/10 A298 RMK A01 T02060101  RH  053%=      5-min Rain = 0
KLD1 181605Z 20012KT 21/10 A298 RMK A01 T02110103  RH  052%=      5-min Rain = 0
KLD1 181610Z 21014KT 22/10 A2979 RMK A01 T02150104  RH  051%=      5-min Rain = 0
KLD1 181615Z 21015KT 22/10 A2979 RMK A01 T02170104  RH  050%=      5-min Rain = 0
KLD1 181620Z 20014KT 22/10 A2979 RMK A01 T02200104  RH  050%=      5-min Rain = 0
KLD1 181625Z 21012G17KT 22/11 A2979 RMK A01 T02240106  RH  049%=      5-min Rain = 0
KLD1 181630Z 21011KT 23/11 A2978 RMK A01 T02280106  RH  048%=      5-min Rain = 0
KLD1 181635Z 22013G19KT 24/11 A2978 RMK A01 T02360109  RH  046%=      5-min Rain = 0
KLD1 181640Z 22015G20KT 24/11 A2978 RMK A01 T02380109  RH  046%=      5-min Rain = 0
KLD1 181645Z 21013G18KT 24/11 A2978 RMK A01 T02430109  RH  045%=      5-min Rain = 0
KLD1 181650Z 22012G20KT 25/11 A2977 RMK A01 T02470110  RH  044%=      5-min Rain = 0
KLD1 181655Z 21012G18KT 25/11 A2977 RMK A01 T02450110  RH  044%=      5-min Rain = 0
KLD1 181700Z 21013G18KT 25/11 A2977 RMK A01 T02510111  RH  043%=      5-min Rain = 0
KLD1 181705Z 22015G21KT 26/11 A2977 RMK A01 T02570111  RH  041%=      5-min Rain = 0
KLD1 181710Z 22016G21KT 26/11 A2977 RMK A01 T02620110  RH  040%=      5-min Rain = 0
KLD1 181715Z 22016G21KT 26/11 A2977 RMK A01 T02630109  RH  039%=      5-min Rain = 0
KLD1 181720Z 23015KT 27/11 A2977 RMK A01 T02660108  RH  038%=      5-min Rain = 0
KLD1 181725Z 22016G21KT 27/11 A2976 RMK A01 T02660108  RH  039%=      5-min Rain = 0
KLD1 181730Z 22017G24KT 27/11 A2976 RMK A01 T02700109  RH  038%=      5-min Rain = 0
KLD1 181735Z 22015KT 27/11 A2976 RMK A01 T02690110  RH  038%=      5-min Rain = 0
KLD1 181740Z 23016G22KT 27/11 A2976 RMK A01 T02720109  RH  037%=      5-min Rain = 0
KLD1 181745Z 22015KT 27/11 A2975 RMK A01 T02730109  RH  037%=      5-min Rain = 0
KLD1 181750Z 24015G20KT 28/11 A2975 RMK A01 T02780107  RH  036%=      5-min Rain = 0
KLD1 181755Z 24013G24KT 28/11 A2975 RMK A01 T02780109  RH  036%=      5-min Rain = 0
KLD1 181800Z 23016G23KT 28/10 A2974 RMK A01 T02790104  RH  035%=      5-min Rain = 0
KLD1 181805Z 24014G20KT 28/11 A2974 RMK A01 T02820105  RH  034%=      5-min Rain = 0
KLD1 181810Z 23016G25KT 28/10 A2974 RMK A01 T02810102  RH  034%=      5-min Rain = 0
KLD1 181815Z 23014G20KT 28/10 A2974 RMK A01 T02840101  RH  033%=      5-min Rain = 0
KLD1 181820Z 22018G24KT 29/09 A2973 RMK A01 T02860094  RH  031%=      5-min Rain = 0
KLD1 181825Z 23016G23KT 29/10 A2973 RMK A01 T02850097  RH  032%=      5-min Rain = 0
KLD1 181830Z 22016G21KT 29/10 A2973 RMK A01 T02850098  RH  032%=      5-min Rain = 0
KLD1 181835Z 22018G24KT 28/09 A2973 RMK A01 T02840092  RH  031%=      5-min Rain = 0
KLD1 181840Z 23014G20KT 29/09 A2972 RMK A01 T02880088  RH  030%=      5-min Rain = 0
KLD1 181845Z 23015G20KT 29/08 A2972 RMK A01 T02900084  RH  028%=      5-min Rain = 0
KLD1 181850Z 24017G23KT 29/08 A2971 RMK A01 T02900075  RH  027%=      5-min Rain = 0
KLD1 181855Z 23018KT 29/07 A2971 RMK A01 T02890074  RH  026%=      5-min Rain = 0
KLD1 181900Z 22017G23KT 29/07 A2971 RMK A01 T02930069  RH  025%=      5-min Rain = 0
KLD1 181905Z 24016G21KT 29/07 A297 RMK A01 T02900065  RH  025%=      5-min Rain = 0
KLD1 181910Z 22013G20KT 30/06 A297 RMK A01 T02950062  RH  024%=      5-min Rain = 0
KLD1 181915Z 24018G25KT 29/06 A2969 RMK A01 T02940058  RH  023%=      5-min Rain = 0
KLD1 181920Z 24017G23KT 29/05 A2969 RMK A01 T02920051  RH  022%=      5-min Rain = 0
KLD1 181925Z 23019G24KT 29/05 A2969 RMK A01 T02930047  RH  021%=      5-min Rain = 0
KLD1 181930Z 22018G25KT 29/04 A2969 RMK A01 T02910042  RH  021%=      5-min Rain = 0
KLD1 181935Z 23016G22KT 29/05 A2969 RMK A01 T02910052  RH  022%=      5-min Rain = 0
KLD1 181940Z 23016G24KT 29/06 A2969 RMK A01 T02920061  RH  024%=      5-min Rain = 0
KLD1 181945Z 24015G20KT 29/06 A2968 RMK A01 T02900062  RH  024%=      5-min Rain = 0
KLD1 181950Z 24016G23KT 29/07 A2968 RMK A01 T02940066  RH  024%=      5-min Rain = 0
KLD1 181955Z 23018G24KT 29/06 A2968 RMK A01 T02930064  RH  024%=      5-min Rain = 0
KLD1 182000Z 24016G22KT 28/06 A2968 RMK A01 T02830060  RH  025%=      5-min Rain = 0
KLD1 182005Z 24017G25KT 29/06 A2968 RMK A01 T02890062  RH  024%=      5-min Rain = 0
KLD1 182010Z 24019G28KT 29/07 A2968 RMK A01 T02910067  RH  025%=      5-min Rain = 0
KLD1 182015Z 25020G26KT 29/07 A2968 RMK A01 T02890068  RH  026%=      5-min Rain = 0
KLD1 182020Z 23018G26KT 29/07 A2968 RMK A01 T02890074  RH  027%=      5-min Rain = 0
KLD1 182025Z 23018KT 28/08 A2967 RMK A01 T02790076  RH  029%=      5-min Rain = 0
KLD1 182030Z 24016G23KT 29/08 A2967 RMK A01 T02850078  RH  028%=      5-min Rain = 0
KLD1 182035Z 24014G23KT 28/08 A2967 RMK A01 T02830076  RH  028%=      5-min Rain = 0
KLD1 182040Z 23015G20KT 29/07 A2967 RMK A01 T02890074  RH  027%=      5-min Rain = 0
KLD1 182045Z 25017G23KT 29/08 A2967 RMK A01 T02890075  RH  027%=      5-min Rain = 0
KLD1 182050Z 25015G23KT 29/07 A2967 RMK A01 T02920070  RH  025%=      5-min Rain = 0
KLD1 182055Z 24016G21KT 29/07 A2967 RMK A01 T02870069  RH  026%=      5-min Rain = 0
KLD1 182100Z 25013G20KT 28/07 A2967 RMK A01 T02840071  RH  027%=      5-min Rain = 0
KLD1 182105Z 25018G24KT 29/07 A2967 RMK A01 T02900069  RH  025%=      5-min Rain = 0
KLD1 182110Z 23016KT 29/07 A2967 RMK A01 T02850068  RH  026%=      5-min Rain = 0
KLD1 182115Z 24016G22KT 29/07 A2966 RMK A01 T02900065  RH  025%=      5-min Rain = 0
KLD1 182120Z 25017G23KT 29/06 A2966 RMK A01 T02900063  RH  024%=      5-min Rain = 0
KLD1 182125Z 23017G24KT 29/07 A2966 RMK A01 T02890068  RH  025%=      5-min Rain = 0
KLD1 182130Z 24014G27KT 29/07 A2966 RMK A01 T02890067  RH  025%=      5-min Rain = 0
KLD1 182135Z 23016G21KT 29/07 A2966 RMK A01 T02900065  RH  025%=      5-min Rain = 0
KLD1 182140Z 23016G21KT 29/06 A2966 RMK A01 T02860062  RH  025%=      5-min Rain = 0
KLD1 182145Z 23016G25KT 29/06 A2966 RMK A01 T02880062  RH  025%=      5-min Rain = 0
KLD1 182150Z 23016G24KT 29/06 A2966 RMK A01 T02890056  RH  023%=      5-min Rain = 0
KLD1 182155Z 25017G24KT 29/06 A2966 RMK A01 T02900059  RH  024%=      5-min Rain = 0
KLD1 182200Z 24018G25KT 29/06 A2966 RMK A01 T02870060  RH  024%=      5-min Rain = 0
KLD1 182205Z 24014G19KT 28/06 A2967 RMK A01 T02790060  RH  026%=      5-min Rain = 0
KLD1 182210Z 25016G22KT 28/05 A2966 RMK A01 T02760053  RH  025%=      5-min Rain = 0
KLD1 182215Z 24012G18KT 28/06 A2966 RMK A01 T02780055  RH  025%=      5-min Rain = 0
KLD1 182220Z 26013G19KT 28/06 A2966 RMK A01 T02780056  RH  025%=      5-min Rain = 0
KLD1 182225Z 25014G19KT 28/06 A2966 RMK A01 T02820060  RH  025%=      5-min Rain = 0
KLD1 182230Z 25014G19KT 28/06 A2966 RMK A01 T02770057  RH  025%=      5-min Rain = 0
KLD1 182235Z 25012G17KT 27/06 A2966 RMK A01 T02740057  RH  026%=      5-min Rain = 0
KLD1 182240Z 23010G15KT 28/06 A2966 RMK A01 T02770061  RH  026%=      5-min Rain = 0
KLD1 182245Z 24011KT 29/06 A2966 RMK A01 T02860060  RH  024%=      5-min Rain = 0
KLD1 182250Z 27014KT 29/05 A2966 RMK A01 T02880047  RH  022%=      5-min Rain = 0
KLD1 182255Z 26016G22KT 29/04 A2966 RMK A01 T02870037  RH  021%=      5-min Rain = 0
KLD1 182300Z 26017G24KT 29/03 A2966 RMK A01 T02860028  RH  019%=      5-min Rain = 0
KLD1 182305Z 26017KT 28/02 A2967 RMK A01 T02820019  RH  019%=      5-min Rain = 0
KLD1 182310Z 26015G22KT 28/02 A2967 RMK A01 T02770020  RH  019%=      5-min Rain = 0
KLD1 182315Z 26017G22KT 27/02 A2967 RMK A01 T02730024  RH  020%=      5-min Rain = 0
KLD1 182320Z 26016G21KT 27/03 A2967 RMK A01 T02690027  RH  021%=      5-min Rain = 0
KLD1 182325Z 26014G19KT 27/03 A2967 RMK A01 T02700027  RH  021%=      5-min Rain = 0
KLD1 182330Z 26013KT 27/03 A2967 RMK A01 T02710030  RH  021%=      5-min Rain = 0
KLD1 182335Z 25014KT 27/03 A2967 RMK A01 T02730032  RH  022%=      5-min Rain = 0
KLD1 182340Z 26012KT 27/04 A2968 RMK A01 T02700035  RH  022%=      5-min Rain = 0
KLD1 182345Z 25011G16KT 27/04 A2968 RMK A01 T02670036  RH  023%=      5-min Rain = 0
KLD1 182350Z 25014G21KT 27/04 A2968 RMK A01 T02660036  RH  023%=      5-min Rain = 0
KLD1 182355Z 25016G21KT 26/03 A2968 RMK A01 T02640031  RH  023%=      5-min Rain = 0
KLD1 190000Z 25013KT 26/03 A2968 RMK A01 T02600025  RH  022%=      5-min Rain = 0
KLD1 190005Z 25012KT 26/02 A2968 RMK A01 T02570023  RH  022%=      5-min Rain = 0
KLD1 190010Z 25013KT 25/02 A2968 RMK A01 T02540022  RH  023%=      5-min Rain = 0
KLD1 190015Z 25011KT 25/02 A2968 RMK A01 T02510022  RH  023%=      5-min Rain = 0
KLD1 190020Z 25011KT 25/02 A2968 RMK A01 T02480023  RH  023%=      5-min Rain = 0
KLD1 190025Z 25013G30KT 25/03 A2969 RMK A01 T02450025  RH  024%=      5-min Rain = 0
KLD1 190030Z 25021G28KT 25/03 A2971 RMK A01 T02470031  RH  025%=      5-min Rain = 0
KLD1 190035Z 28017G23KT 23/04 A2972 RMK A01 T02340042  RH  029%=      5-min Rain = 0
KLD1 190040Z 29017G24KT 23/05 A2972 RMK A01 T02250047  RH  032%=      5-min Rain = 0
KLD1 190045Z 29016G22KT 22/05 A2972 RMK A01 T02200050  RH  034%=      5-min Rain = 0
KLD1 190050Z 29015KT 22/05 A2973 RMK A01 T02160053  RH  035%=      5-min Rain = 0
KLD1 190055Z 28013G18KT 21/05 A2973 RMK A01 T02130054  RH  036%=      5-min Rain = 0
KLD1 190100Z 28012KT 21/06 A2974 RMK A01 T02110056  RH  037%=      5-min Rain = 0
KLD1 190105Z 28010KT 21/06 A2974 RMK A01 T02090057  RH  038%=      5-min Rain = 0
KLD1 190110Z 26010KT 21/06 A2975 RMK A01 T02060056  RH  038%=      5-min Rain = 0
KLD1 190115Z 23009KT 20/06 A2976 RMK A01 T02040055  RH  039%=      5-min Rain = 0
KLD1 190120Z 22009KT 20/05 A2976 RMK A01 T02020054  RH  039%=      5-min Rain = 0
KLD1 190125Z 21011KT 20/05 A2977 RMK A01 T02020052  RH  038%=      5-min Rain = 0
KLD1 190130Z 22010KT 20/05 A2976 RMK A01 T02040052  RH  038%=      5-min Rain = 0
KLD1 190135Z 23010KT 21/05 A2976 RMK A01 T02050052  RH  038%=      5-min Rain = 0
KLD1 190140Z 24011KT 20/05 A2977 RMK A01 T02040051  RH  037%=      5-min Rain = 0
KLD1 190145Z 25010KT 20/05 A2977 RMK A01 T02010051  RH  038%=      5-min Rain = 0
KLD1 190150Z 25009KT 20/05 A2977 RMK A01 T01970050  RH  039%=      5-min Rain = 0
KLD1 190155Z 25008KT 20/05 A2977 RMK A01 T01950050  RH  039%=      5-min Rain = 0
KLD1 190200Z 25008KT 19/05 A2977 RMK A01 T01930049  RH  040%=      5-min Rain = 0
KLD1 190205Z 24007KT 19/05 A2977 RMK A01 T01890049  RH  041%=      5-min Rain = 0
KLD1 190210Z 24007KT 19/05 A2977 RMK A01 T01860050  RH  041%=      5-min Rain = 0
KLD1 190215Z 24008KT 18/05 A2977 RMK A01 T01840050  RH  042%=      5-min Rain = 0
KLD1 190220Z 24008KT 18/05 A2977 RMK A01 T01840050  RH  042%=      5-min Rain = 0
KLD1 190225Z 24008KT 18/05 A2977 RMK A01 T01820050  RH  043%=      5-min Rain = 0
KLD1 190230Z 24007KT 18/05 A2977 RMK A01 T01770050  RH  044%=      5-min Rain = 0
KLD1 190235Z 24007KT 18/05 A2976 RMK A01 T01760050  RH  044%=      5-min Rain = 0
KLD1 190240Z 24007KT 17/05 A2976 RMK A01 T01730050  RH  045%=      5-min Rain = 0
KLD1 190245Z 24007KT 17/05 A2976 RMK A01 T01700050  RH  046%=      5-min Rain = 0
KLD1 190250Z 24006KT 17/05 A2976 RMK A01 T01660050  RH  047%=      5-min Rain = 0
KLD1 190255Z 25006KT 16/05 A2976 RMK A01 T01640050  RH  048%=      5-min Rain = 0
KLD1 190300Z 24006KT 16/05 A2976 RMK A01 T01610050  RH  048%=      5-min Rain = 0
KLD1 190305Z 23007KT 16/05 A2976 RMK A01 T01590050  RH  049%=      5-min Rain = 0
KLD1 190310Z 24006KT 16/05 A2976 RMK A01 T01620051  RH  049%=      5-min Rain = 0
KLD1 190315Z 24006KT 16/05 A2977 RMK A01 T01620052  RH  049%=      5-min Rain = 0
KLD1 190320Z 24008KT 16/05 A2977 RMK A01 T01610052  RH  049%=      5-min Rain = 0
KLD1 190325Z 25009KT 16/05 A2977 RMK A01 T01600052  RH  050%=      5-min Rain = 0
KLD1 190330Z 25009KT 16/05 A2978 RMK A01 T01580052  RH  050%=      5-min Rain = 0
KLD1 190335Z 25010KT 16/05 A2978 RMK A01 T01610054  RH  050%=      5-min Rain = 0
KLD1 190340Z 25010KT 16/05 A2978 RMK A01 T01640054  RH  049%=      5-min Rain = 0
KLD1 190345Z 25011KT 17/06 A2978 RMK A01 T01670055  RH  049%=      5-min Rain = 0
KLD1 190350Z 25011KT 17/06 A2978 RMK A01 T01690055  RH  048%=      5-min Rain = 0
KLD1 190355Z 25011KT 17/06 A2978 RMK A01 T01690056  RH  048%=      5-min Rain = 0
KLD1 190400Z 26012KT 17/06 A2978 RMK A01 T01700056  RH  048%=      5-min Rain = 0
KLD1 190405Z 26012KT 17/06 A2978 RMK A01 T01700057  RH  048%=      5-min Rain = 0
KLD1 190410Z 25011KT 17/06 A2978 RMK A01 T01680057  RH  049%=      5-min Rain = 0
KLD1 190415Z 25011KT 16/06 A2979 RMK A01 T01640057  RH  050%=      5-min Rain = 0
KLD1 190420Z 26010KT 16/06 A2979 RMK A01 T01620057  RH  051%=      5-min Rain = 0
KLD1 190425Z 25010KT 16/06 A2979 RMK A01 T01590057  RH  052%=      5-min Rain = 0
KLD1 190430Z 25011KT 16/06 A2979 RMK A01 T01560056  RH  052%=      5-min Rain = 0
KLD1 190435Z 25011KT 16/06 A2979 RMK A01 T01560056  RH  053%=      5-min Rain = 0
KLD1 190440Z 25011KT 16/06 A2979 RMK A01 T01550055  RH  053%=      5-min Rain = 0
KLD1 190445Z 26011KT 16/06 A2979 RMK A01 T01550055  RH  053%=      5-min Rain = 0
KLD1 190450Z 26011KT 15/05 A2979 RMK A01 T01540054  RH  053%=      5-min Rain = 0
KLD1 190455Z 26011KT 15/05 A2979 RMK A01 T01540054  RH  052%=      5-min Rain = 0

Page generated in 0.0095 seconds.